.
WxDataArchive / Data Records for 2011-07-15
2011-07-14 July 2011 2011-07-16

Data Records for Friday, 15 July 2011

Time	Temp	Chill	HIndex	Humid	Dewpt	 Wind 	HiWind	WindDir	Rain 	Barom 
-----	----	-----	------	-----	-----	------	------	-------	-----	----- 
00:00	68.6	68.6	68.6	65	56.4	0	1	68	0.00	29.983 
00:05	68.4	68.4	68.4	65	56.2	0	1	68	0.00	29.983 
00:10	68.1	68.1	68.1	66	56.3	0	1	68	0.00	29.983 
00:15	67.9	67.9	67.9	66	56.1	0	0	---	0.00	29.994 
00:20	67.8	67.8	67.8	67	56.4	0	0	---	0.00	29.994 
00:25	67.6	67.6	67.6	67	56.2	0	0	---	0.00	29.994 
00:30	67.4	67.4	67.4	68	56.5	0	0	---	0.00	30.001 
00:35	67.3	67.3	67.3	68	56.4	0	0	---	0.00	30.001 
00:40	67.1	67.1	67.1	69	56.6	0	0	---	0.00	30.001 
00:45	66.9	66.9	66.9	69	56.4	0	0	---	0.00	29.998 
00:50	66.8	66.8	66.8	70	56.7	0	0	---	0.00	29.998 
00:55	66.6	66.6	66.6	70	56.5	0	0	---	0.00	29.998 
01:00	66.4	66.4	66.4	70	56.3	0	0	---	0.00	29.999 
01:05	66.1	66.1	66.1	71	56.4	0	0	---	0.00	29.999 
01:10	65.8	65.8	65.8	72	56.5	0	0	---	0.00	29.999 
01:15	65.6	65.6	65.6	73	56.7	0	0	---	0.00	29.996 
01:20	65.3	65.3	65.3	74	56.8	0	0	---	0.00	29.996 
01:25	65.2	65.2	65.2	75	57.1	0	0	---	0.00	29.996 
01:30	65.2	65.2	65.2	76	57.4	0	0	---	0.00	29.994 
01:35	65.0	65.0	65.0	76	57.2	0	0	---	0.00	29.994 
01:40	65.0	65.0	65.0	77	57.6	0	0	---	0.00	29.994 
01:45	65.0	65.0	65.0	77	57.6	0	0	---	0.00	29.998 
01:50	65.0	65.0	65.0	78	58.0	0	0	---	0.00	29.998 
01:55	65.0	65.0	65.0	78	58.0	0	0	---	0.00	29.998 
02:00	65.0	65.0	65.0	78	58.0	0	0	---	0.00	29.997 
02:05	65.0	65.0	65.0	78	58.0	0	0	---	0.00	29.997 
02:10	65.2	65.2	65.2	79	58.5	0	0	---	0.00	29.997 
02:15	65.2	65.2	65.2	79	58.5	0	0	---	0.00	29.990 
02:20	65.3	65.3	65.3	79	58.6	0	0	---	0.00	29.990 
02:25	65.6	65.6	65.6	78	58.5	0	0	---	0.00	29.990 
02:30	65.8	65.8	65.8	77	58.4	0	2	68	0.00	29.983 
02:35	66.1	66.1	66.1	76	58.3	1	3	68	0.00	29.983 
02:40	66.3	66.3	66.3	76	58.5	1	3	90	0.00	29.983 
02:45	66.3	66.3	66.3	76	58.5	0	3	90	0.00	29.980 
02:50	66.3	66.3	66.3	75	58.1	0	1	90	0.00	29.980 
02:55	66.3	66.3	66.3	76	58.5	0	1	90	0.00	29.980 
03:00	66.3	66.3	66.3	76	58.5	0	1	90	0.00	29.981 
03:05	66.3	66.3	66.3	76	58.5	0	1	90	0.00	29.981 
03:10	66.1	66.1	66.1	76	58.3	0	0	---	0.00	29.981 
03:15	66.1	66.1	66.1	76	58.3	0	0	---	0.00	29.983 
03:20	66.0	66.0	66.0	76	58.2	0	0	---	0.00	29.983 
03:25	65.8	65.8	65.8	76	58.0	0	0	---	0.00	29.983 
03:30	65.5	65.5	65.5	76	57.7	0	0	---	0.00	29.982 
03:35	65.5	65.5	65.5	77	58.1	0	0	---	0.00	29.982 
03:40	65.3	65.3	65.3	77	57.9	0	0	---	0.00	29.982 
03:45	65.3	65.3	65.3	77	57.9	0	0	---	0.00	29.981 
03:50	65.2	65.2	65.2	77	57.8	0	0	---	0.00	29.981 
03:55	65.2	65.2	65.2	77	57.8	0	0	---	0.00	29.981 
04:00	65.2	65.2	65.2	77	57.8	0	0	---	0.00	29.983 
04:05	65.2	65.2	65.2	77	57.8	0	1	90	0.00	29.983 
04:10	65.3	65.3	65.3	76	57.5	0	1	90	0.00	29.983 
04:15	65.3	65.3	65.3	76	57.5	0	0	---	0.00	29.985 
04:20	65.3	65.3	65.3	76	57.5	0	0	---	0.00	29.985 
04:25	65.3	65.3	65.3	76	57.5	0	0	---	0.00	29.985 
04:30	65.3	65.3	65.3	76	57.5	0	0	---	0.00	29.989 
04:35	65.2	65.2	65.2	76	57.4	0	0	---	0.00	29.989 
04:40	65.2	65.2	65.2	76	57.4	0	0	---	0.00	29.989 
04:45	65.0	65.0	65.0	76	57.2	0	0	---	0.00	29.986 
04:50	65.0	65.0	65.0	77	57.6	0	0	---	0.00	29.986 
04:55	64.8	64.8	64.8	77	57.4	0	0	---	0.00	29.986 
05:00	64.8	64.8	64.8	77	57.4	0	0	---	0.00	29.987 
05:05	64.7	64.7	64.7	77	57.3	0	0	---	0.00	29.987 
05:10	64.7	64.7	64.7	77	57.3	0	0	---	0.00	29.987 
05:15	64.7	64.7	64.7	77	57.3	0	0	---	0.00	29.995 
05:20	64.7	64.7	64.7	77	57.3	0	0	---	0.00	29.995 
05:25	64.7	64.7	64.7	77	57.3	0	0	---	0.00	29.995 
05:30	64.7	64.7	64.7	77	57.3	0	0	---	0.00	29.995 
05:35	64.5	64.5	64.5	77	57.1	0	0	---	0.00	29.995 
05:40	64.5	64.5	64.5	77	57.1	0	0	---	0.00	29.995 
05:45	64.5	64.5	64.5	77	57.1	0	0	---	0.00	29.997 
05:50	64.5	64.5	64.5	77	57.1	0	0	---	0.00	29.997 
05:55	64.3	64.3	64.3	77	56.9	0	0	---	0.00	29.997 
06:00	64.3	64.3	64.3	78	57.3	0	0	---	0.00	29.997 
06:05	64.3	64.3	64.3	78	57.3	0	0	---	0.00	29.997 
06:10	64.3	64.3	64.3	78	57.3	0	0	---	0.00	29.997 
06:15	64.3	64.3	64.3	78	57.3	0	0	---	0.00	30.000 
06:20	64.3	64.3	64.3	78	57.3	0	0	---	0.00	30.000 
06:25	64.3	64.3	64.3	78	57.3	0	0	---	0.00	30.000 
06:30	64.3	64.3	64.3	78	57.3	0	0	---	0.00	30.000 
06:35	64.5	64.5	64.5	78	57.5	0	0	---	0.00	30.000 
06:40	64.5	64.5	64.5	78	57.5	0	0	---	0.00	30.000 
06:45	64.5	64.5	64.5	78	57.5	0	0	---	0.00	30.003 
06:50	64.5	64.5	64.5	77	57.1	0	0	---	0.00	30.003 
06:55	64.5	64.5	64.5	77	57.1	0	0	---	0.00	30.003 
07:00	64.5	64.5	64.5	78	57.5	0	0	---	0.00	30.009 
07:05	64.5	64.5	64.5	78	57.5	0	0	---	0.00	30.009 
07:10	64.5	64.5	64.5	78	57.5	0	0	---	0.00	30.009 
07:15	64.5	64.5	64.5	78	57.5	0	1	90	0.00	30.009 
07:20	64.5	64.5	64.5	77	57.1	0	0	---	0.00	30.009 
07:25	64.7	64.7	64.7	78	57.7	0	1	90	0.00	30.009 
07:30	64.8	64.8	64.8	77	57.4	0	2	90	0.00	30.010 
07:35	65.0	65.0	65.0	77	57.6	0	2	90	0.00	30.010 
07:40	65.3	65.3	65.3	77	57.9	0	2	90	0.00	30.010 
07:45	65.5	65.5	65.5	76	57.7	0	0	---	0.00	30.013 
07:50	65.6	65.6	65.6	76	57.8	0	1	90	0.00	30.013 
07:55	65.8	65.8	65.8	75	57.6	0	2	90	0.00	30.013 
08:00	66.1	66.1	66.1	75	57.9	0	2	90	0.00	30.010 
08:05	66.3	66.3	66.3	76	58.5	0	1	90	0.00	30.010 
08:10	66.8	66.8	66.8	75	58.6	0	0	---	0.00	30.010 
08:15	67.1	67.1	67.1	74	58.5	0	1	90	0.00	30.014 
08:20	67.3	67.3	67.3	73	58.3	0	2	90	0.00	30.014 
08:25	67.3	67.3	67.3	73	58.3	0	1	90	0.00	30.014 
08:30	67.3	67.3	67.3	73	58.3	0	2	90	0.00	30.017 
08:35	67.8	67.8	67.8	73	58.8	0	1	90	0.00	30.017 
08:40	68.4	68.4	68.4	71	58.6	1	3	90	0.00	30.017 
08:45	69.1	69.1	69.1	70	58.9	0	3	68	0.00	30.020 
08:50	69.6	69.6	69.6	68	58.6	1	3	68	0.00	30.020 
08:55	69.6	69.6	69.6	68	58.6	1	3	68	0.00	30.020 
09:00	69.6	69.6	69.6	69	59.0	0	2	68	0.00	30.019 
09:05	69.4	69.4	69.4	68	58.4	0	2	68	0.00	30.019 
09:10	69.1	69.1	69.1	69	58.5	1	3	112	0.00	30.019 
09:15	69.6	69.6	69.6	68	58.6	1	3	112	0.00	30.020 
09:20	70.1	70.1	70.1	68	59.0	0	2	112	0.00	30.020 
09:25	70.3	70.3	70.3	68	59.2	1	2	112	0.00	30.020 
09:30	70.1	70.1	70.1	68	59.0	2	5	112	0.00	30.025 
09:35	69.9	69.9	69.9	69	59.3	0	2	112	0.00	30.025 
09:40	70.1	70.1	70.1	68	59.0	2	4	112	0.00	30.025 
09:45	70.3	70.3	70.3	66	58.4	2	5	90	0.00	30.022 
09:50	70.6	70.6	70.6	67	59.1	1	3	90	0.00	30.022 
09:55	70.9	70.9	70.9	67	59.4	1	3	90	0.00	30.022 
10:00	71.6	71.6	71.6	65	59.2	1	3	90	0.00	30.017 
10:05	72.0	72.0	72.0	64	59.1	0	2	90	0.00	30.017 
10:10	72.3	72.3	72.3	62	58.5	0	3	45	0.00	30.017 
10:15	72.5	72.5	72.5	63	59.2	1	2	45	0.00	30.022 
10:20	72.5	72.5	72.5	64	59.6	0	2	292	0.00	30.022 
10:25	72.7	72.7	72.7	64	59.8	0	1	292	0.00	30.022 
10:30	73.2	73.2	73.2	63	59.8	0	3	0	0.00	30.014 
10:35	73.7	73.7	73.7	62	59.9	0	2	0	0.00	30.014 
10:40	74.4	74.4	74.4	60	59.6	1	3	22	0.00	30.014 
10:45	74.7	74.7	74.7	61	60.3	1	4	22	0.00	30.006 
10:50	74.9	74.9	74.9	60	60.1	2	5	90	0.00	30.006 
10:55	74.9	74.9	74.9	60	60.1	1	3	90	0.00	30.006 
11:00	74.9	74.9	74.9	60	60.1	0	1	90	0.00	30.006 
11:05	75.1	75.1	77.4	60	60.2	1	3	90	0.00	30.006 
11:10	76.0	76.0	78.0	58	60.1	2	4	90	0.00	30.006 
11:15	76.8	76.8	78.6	57	60.4	1	4	90	0.00	30.007 
11:20	77.4	77.4	79.0	56	60.5	1	3	90	0.00	30.007 
11:25	77.6	77.6	79.2	55	60.1	1	3	90	0.00	30.007 
11:30	77.6	77.6	79.2	55	60.1	1	3	90	0.00	30.000 
11:35	77.7	77.7	79.2	54	59.7	1	3	90	0.00	30.000 
11:40	77.7	77.7	79.2	54	59.7	1	4	90	0.00	30.000 
11:45	77.7	77.7	79.2	55	60.2	1	3	90	0.00	30.000 
11:50	78.1	78.1	79.6	56	61.1	1	4	90	0.00	30.000 
11:55	78.8	78.8	80.0	53	60.2	1	5	90	0.00	30.000 
12:00	79.6	79.6	80.5	51	59.9	1	4	90	0.00	29.997 
12:05	80.5	80.5	81.3	50	60.1	0	3	90	0.00	29.997 
12:10	81.1	81.1	81.4	46	58.3	2	6	90	0.00	29.997 
12:15	81.1	81.1	81.3	45	57.7	3	5	90	0.00	29.996 
12:20	81.1	81.1	81.4	46	58.3	2	5	68	0.00	29.996 
12:25	81.4	81.4	81.2	42	56.1	2	9	68	0.00	29.996 
12:30	82.2	82.2	81.9	42	56.8	2	5	112	0.00	29.990 
12:35	82.4	82.4	81.8	40	55.6	2	6	90	0.00	29.990 
12:40	82.6	82.6	81.8	39	55.1	3	5	112	0.00	29.990 
12:45	83.2	83.2	82.5	40	56.3	1	5	90	0.00	29.984 
12:50	83.4	83.4	82.3	37	54.4	3	7	90	0.00	29.984 
12:55	83.0	83.0	82.0	37	54.0	2	5	90	0.00	29.984 
13:00	83.4	83.4	82.4	38	55.1	2	7	112	0.00	29.982 
13:05	83.6	83.6	82.8	39	56.0	1	5	90	0.00	29.982 
13:10	84.0	84.0	83.3	40	57.0	1	4	90	0.00	29.982 
13:15	83.8	83.8	82.1	32	50.8	3	6	90	0.00	29.983 
13:20	84.0	84.0	82.5	34	52.6	2	7	90	0.00	29.983 
13:25	84.0	84.0	82.6	35	53.4	3	7	90	0.00	29.983 
13:30	84.1	84.1	82.7	35	53.5	1	5	112	0.00	29.982 
13:35	84.5	84.5	82.9	34	53.0	1	4	112	0.00	29.982 
13:40	84.7	84.7	83.0	33	52.4	3	7	112	0.00	29.982 
13:45	84.3	84.3	82.6	33	52.0	3	6	112	0.00	29.979 
13:50	84.5	84.5	82.9	34	53.0	3	9	90	0.00	29.979 
13:55	84.7	84.7	83.0	33	52.4	1	6	112	0.00	29.979 
14:00	85.1	85.1	83.8	36	55.1	2	6	90	0.00	29.980 
14:05	85.3	85.3	83.8	35	54.5	1	4	90	0.00	29.980 
14:10	85.5	85.5	83.6	32	52.2	2	6	90	0.00	29.980 
14:15	85.5	85.5	83.6	32	52.2	3	8	90	0.00	29.979 
14:20	85.1	85.1	83.1	31	51.0	2	6	90	0.00	29.979 
14:25	85.5	85.5	83.8	34	53.9	2	6	90	0.00	29.979 
14:30	85.9	85.9	83.7	30	50.8	3	7	90	0.00	29.974 
14:35	85.7	85.7	83.6	31	51.5	3	7	90	0.00	29.974 
14:40	86.1	86.1	84.0	31	51.9	2	9	90	0.00	29.974 
14:45	86.3	86.3	84.2	31	52.1	2	5	90	0.00	29.972 
14:50	86.7	86.7	84.6	31	52.4	2	5	90	0.00	29.972 
14:55	86.3	86.3	84.0	30	51.2	3	7	90	0.00	29.972 
15:00	85.9	85.9	83.7	30	50.8	2	7	68	0.00	29.974 
15:05	85.7	85.7	83.2	28	48.8	3	7	90	0.00	29.974 
15:10	86.1	86.1	83.8	30	51.0	1	3	112	0.00	29.974 
15:15	87.0	87.0	84.4	28	49.9	2	5	90	0.00	29.974 
15:20	87.0	87.0	84.4	28	49.9	2	6	112	0.00	29.974 
15:25	86.7	86.7	84.1	28	49.7	3	6	68	0.00	29.974 
15:30	87.0	87.0	84.4	28	49.9	2	5	112	0.00	29.971 
15:35	87.4	87.4	85.0	29	51.2	2	4	112	0.00	29.971 
15:40	87.4	87.4	84.7	27	49.3	2	6	68	0.00	29.971 
15:45	87.4	87.4	84.8	28	50.3	2	5	112	0.00	29.975 
15:50	87.2	87.2	84.5	27	49.1	2	6	68	0.00	29.975 
15:55	87.4	87.4	84.8	28	50.3	1	3	90	0.00	29.975 
16:00	87.4	87.4	84.8	28	50.3	2	5	68	0.00	29.967 
16:05	87.6	87.6	85.2	29	51.4	1	3	90	0.00	29.967 
16:10	87.8	87.8	85.5	30	52.5	3	5	90	0.00	29.967 
16:15	87.8	87.8	85.4	29	51.5	1	6	112	0.00	29.965 
16:20	88.0	88.0	85.6	29	51.7	1	3	112	0.00	29.965 
16:25	88.2	88.2	85.6	28	50.9	2	5	112	0.00	29.965 
16:30	88.2	88.2	86.3	32	54.6	1	5	90	0.00	29.962 
16:35	88.0	88.0	85.6	29	51.7	1	3	112	0.00	29.962 
16:40	87.6	87.6	85.0	28	50.4	2	6	90	0.00	29.962 
16:45	87.6	87.6	85.2	29	51.4	1	5	112	0.00	29.962 
16:50	87.6	87.6	85.0	28	50.4	3	9	90	0.00	29.962 
16:55	87.6	87.6	85.0	28	50.4	2	5	90	0.00	29.962 
17:00	87.4	87.4	85.3	31	53.0	1	4	90	0.00	29.958 
17:05	87.4	87.4	85.4	32	53.9	2	5	90	0.00	29.958 
17:10	87.6	87.6	85.5	31	53.2	1	7	112	0.00	29.958 
17:15	87.6	87.6	85.7	32	54.1	1	4	112	0.00	29.957 
17:20	87.4	87.4	85.6	33	54.7	1	4	90	0.00	29.957 
17:25	87.2	87.2	85.1	31	52.8	3	7	90	0.00	29.957 
17:30	87.2	87.2	85.1	31	52.8	1	3	90	0.00	29.952 
17:35	87.2	87.2	85.2	32	53.7	2	5	90	0.00	29.952 
17:40	87.0	87.0	84.9	31	52.7	1	3	90	0.00	29.952 
17:45	87.2	87.2	85.2	32	53.7	1	4	90	0.00	29.949 
17:50	87.4	87.4	85.3	31	53.0	1	5	68	0.00	29.949 
17:55	87.4	87.4	85.4	32	53.9	3	9	90	0.00	29.949 
18:00	87.0	87.0	85.4	34	55.2	2	4	90	0.00	29.946 
18:05	86.7	86.7	85.4	36	56.5	1	5	90	0.00	29.946 
18:10	86.1	86.1	85.0	37	56.7	3	9	112	0.00	29.946 
18:15	85.7	85.7	84.7	38	57.1	3	9	90	0.00	29.948 
18:20	85.1	85.1	84.1	38	56.6	3	5	90	0.00	29.948 
18:25	84.7	84.7	83.7	38	56.2	3	5	90	0.00	29.948 
18:30	84.7	84.7	83.8	39	57.0	1	3	112	0.00	29.949 
18:35	84.9	84.9	84.0	39	57.1	2	5	90	0.00	29.949 
18:40	84.9	84.9	83.9	38	56.4	1	4	90	0.00	29.949 
18:45	84.9	84.9	83.9	38	56.4	1	4	90	0.00	29.947 
18:50	84.7	84.7	83.5	37	55.5	2	5	90	0.00	29.947 
18:55	84.7	84.7	83.7	38	56.2	2	6	90	0.00	29.947 
19:00	84.5	84.5	83.6	39	56.8	2	6	90	0.00	29.945 
19:05	84.3	84.3	83.4	39	56.6	1	3	90	0.00	29.945 
19:10	84.0	84.0	83.1	39	56.3	1	4	90	0.00	29.945 
19:15	83.8	83.8	83.1	40	56.9	1	5	90	0.00	29.940 
19:20	83.8	83.8	82.8	38	55.5	2	7	90	0.00	29.940 
19:25	83.8	83.8	82.8	38	55.5	1	4	90	0.00	29.940 
19:30	83.8	83.8	82.9	39	56.2	1	4	90	0.00	29.937 
19:35	83.8	83.8	82.8	38	55.5	2	4	90	0.00	29.937 
19:40	83.6	83.6	82.6	38	55.3	2	4	68	0.00	29.937 
19:45	83.6	83.6	82.6	38	55.3	2	6	68	0.00	29.934 
19:50	83.4	83.4	82.6	39	55.8	2	5	90	0.00	29.934 
19:55	83.4	83.4	82.4	38	55.1	2	7	90	0.00	29.934 
20:00	83.2	83.2	82.4	39	55.6	2	6	90	0.00	29.934 
20:05	83.0	83.0	82.1	38	54.7	2	4	90	0.00	29.934 
20:10	82.8	82.8	82.0	39	55.3	2	4	68	0.00	29.934 
20:15	82.6	82.6	82.0	40	55.8	1	4	68	0.00	29.933 
20:20	82.4	82.4	81.9	41	56.3	1	2	68	0.00	29.933 
20:25	82.2	82.2	81.7	41	56.1	1	2	68	0.00	29.933 
20:30	81.8	81.8	81.5	42	56.4	1	2	68	0.00	29.938 
20:35	81.6	81.6	81.3	42	56.3	0	3	68	0.00	29.938 
20:40	81.2	81.2	81.1	43	56.5	0	1	68	0.00	29.938 
20:45	81.1	81.1	81.0	43	56.5	0	2	68	0.00	29.946 
20:50	80.7	80.7	80.9	45	57.4	0	3	68	0.00	29.946 
20:55	80.3	80.3	80.7	46	57.6	0	0	---	0.00	29.946 
21:00	79.9	79.9	80.4	46	57.2	0	0	---	0.00	29.947 
21:05	79.4	79.4	80.1	47	57.4	0	0	---	0.00	29.947 
21:10	79.0	79.0	79.8	48	57.6	0	0	---	0.00	29.947 
21:15	78.6	78.6	79.6	49	57.8	0	0	---	0.00	29.950 
21:20	78.3	78.3	79.4	49	57.5	0	0	---	0.00	29.950 
21:25	77.9	77.9	79.2	50	57.7	0	1	68	0.00	29.950 
21:30	77.6	77.6	79.0	50	57.5	0	0	---	0.00	29.957 
21:35	77.4	77.4	78.9	51	57.8	0	0	---	0.00	29.957 
21:40	77.0	77.0	78.7	52	58.0	0	0	---	0.00	29.957 
21:45	76.8	76.8	78.5	52	57.8	0	2	68	0.00	29.960 
21:50	76.8	76.8	78.5	53	58.4	1	2	68	0.00	29.960 
21:55	76.8	76.8	78.5	53	58.4	1	4	68	0.00	29.960 
22:00	76.8	76.8	78.5	53	58.4	0	2	68	0.00	29.966 
22:05	76.7	76.7	78.5	54	58.8	0	2	68	0.00	29.966 
22:10	76.5	76.5	78.4	54	58.6	0	0	---	0.00	29.966 
22:15	76.1	76.1	78.1	55	58.7	0	0	---	0.00	29.979 
22:20	75.8	75.8	77.9	56	59.0	0	2	68	0.00	29.979 
22:25	75.6	75.6	77.8	57	59.3	0	3	68	0.00	29.979 
22:30	75.4	75.4	77.7	57	59.1	0	2	68	0.00	29.977 
22:35	75.4	75.4	77.7	57	59.1	1	2	68	0.00	29.977 
22:40	75.3	75.3	77.6	57	59.0	1	4	68	0.00	29.977 
22:45	75.1	75.1	77.5	58	59.3	1	3	68	0.00	29.973 
22:50	74.9	74.9	74.9	58	59.1	1	4	68	0.00	29.973 
22:55	74.7	74.7	74.7	58	58.9	0	2	90	0.00	29.973 
23:00	74.4	74.4	74.4	59	59.1	0	2	90	0.00	29.974 
23:05	74.2	74.2	74.2	59	58.9	1	2	90	0.00	29.974 
23:10	74.0	74.0	74.0	59	58.7	1	2	90	0.00	29.974 
23:15	73.7	73.7	73.7	60	58.9	0	2	90	0.00	29.967 
23:20	73.5	73.5	73.5	60	58.7	0	1	90	0.00	29.967 
23:25	73.3	73.3	73.3	60	58.6	0	2	90	0.00	29.967 
23:30	73.2	73.2	73.2	60	58.5	0	0	---	0.00	29.968 
23:35	72.8	72.8	72.8	60	58.1	0	1	90	0.00	29.968 
23:40	72.5	72.5	72.5	61	58.3	0	0	---	0.00	29.968 
23:45	72.1	72.1	72.1	61	57.9	0	0	---	0.00	29.974 
23:50	72.0	72.0	72.0	62	58.3	0	0	---	0.00	29.974 
23:55	71.8	71.8	71.8	61	57.6	0	0	---	0.00	29.974 

CoCoRaHS
IN-AL-39
A2 Web Hosting
Creative Commons License
GoDaddy
search engine by freefind advanced

loaded 2018-11-17 19:30:27 • last modified 2010-11-18 10:43:29
Privacy PolicyDisclaimer
• wx.awcolley.com is powered by PmWiki v.2002016 •
• all content (unless otherwise noted) © 2018 A W Colley